Sherborn, MA

9:02 AM EDT on October 22, 2014 (GMT -0400)
Live from 2 Dean Street | Change Station
CLOSE
Current Station
Personal Weather Station
Location: Medway, MA
Elevation: 270 ft
Nearby Weather Stations
Active Advisory: Areal Flood Watch

Elev 270 ft 42.15 °N, 71.41 °W | Updated 1 minute ago

Overcast
Overcast
54.6 °F
Feels Like 54.6 °F
N
3.0
Wind Variable Wind from East
Gusts 4.0 mph

Today
High -- | Low -- °F
--% Chance of Precip.
Yesterday
High -- | Low -- °F
Precip. -- in
7:06 AM 5:52 PM
Waning Crescent, 2% visible
Pressure 30.00 in
Visibility 4.0 miles
Clouds Overcast 600 ft
Dew Point 55 °F
Humidity 100%
Rainfall 0.09 in
Snow Depth Not available.
UV 0 out of 12
Pollen .30 out of 12
Air Quality Not available.
Flu Activity No Activity
METAR KOWD 221253Z 04011G24KT 4SM BR OVC006 13/12 A3000 RMK AO2 PK WND 04028/1237 RAE34 SLP158 P0001 T01280117

More Conditions Fewer Conditions

Pressure 30.00 in
Visibility 4.0 miles
Clouds Overcast 600 ft
Dew Point 55 °F
Humidity 100%
Rainfall 0.09 in
Snow Depth Not available.
UV 0 out of 12
Pollen .30 out of 12
Air Quality Not available.
Flu Activity No Activity
METAR KOWD 221253Z 04011G24KT 4SM BR OVC006 13/12 A3000 RMK AO2 PK WND 04028/1237 RAE34 SLP158 P0001 T01280117

More Conditions Fewer Conditions

10-Day Weather Forecast

Almanac

Astronomy

Oct. 22, 2014 Rise Set
Actual Time 7:06 AM EDT 5:52 PM EDT
Civil Twilight 6:37 AM EDT 6:21 PM EDT
Nautical Twilight 6:05 AM EDT 6:54 PM EDT
Astronomical Twilight 5:32 AM EDT 7:26 PM EDT
Moon 5:43 AM EDT 5:18 PM EDT
Length of Visible Light 11h 43m
Length of Day
10h 46m
Tomorrow will be 2m 40s shorter.
Waning Crescent, 2% of the Moon is Illuminated
Today
Waning Crescent
Oct 23
New
Oct 30
First Quarter
Nov 6
Full
Nov 14
Last Quarter

Today's Extremes

State Highs State Lows

Community

WunderPhotos

Upload Photos

1,763,911 photos uploaded!

Nearby

Air Quality

  Air Quality AQ Index Pollutant
Wednesday Good
PM2.5
Thursday Good
PM2.5

Snow Depth

Station Depth Elevation
No new snow has been reported.

Earthquake Activity

City Distance Mag. Time & Date
No recent earthquake activity has been reported nearby.
Minimum magnitude displayed is 2.5.

Coastal Water Temperatures

Place Temperature
Boston, MA 57.0 °F
Providence, RI 62.1 °F
Fall River, MA 63.0 °F
Conimicut Light, RI 61.0 °F

Nearby Weather Stations